Eagan, Minnesota
Current Conditions -  °F | °C
As of 4:53 PM on Friday 19 Dec 2014 (Local Time) from KMSP Reporting Station
Haze Haze  
Wind Chill: 20°   Ceiling: 1300
Heat Index: 29°   Visibility: 6mi
Dew Point: 24°   Wind: 9mph
Humidity: 82%   Direction: 140°SE
Pressure: 30.2"   Gusts: NA
Location:  44.82°N, 93.17°W
Report Text: KMSP 192253Z 14008KT 6SM R30L/5000VP6000FT HZ OVC013 M02/M04 A3020 RMK AO2 SLP239 T10171044
Loading
Personal Weather Stations






























Interactive Weather Map New forecast layout! Learn more

10-Day Weather Forecast

Advertisements
Track Severe Weather on mobile